createdAt,value
2023-01-15T07:20:02.146Z,0.2
2023-01-15T07:30:01.764Z,0.2
2023-01-15T07:40:01.922Z,0.2
2023-01-15T07:45:01.555Z,0.0
2023-01-15T07:50:01.285Z,0.2
2023-01-15T08:00:02.320Z,1.9
2023-01-15T08:05:01.136Z,2.1
2023-01-15T08:10:01.859Z,2.6
2023-01-15T08:15:01.741Z,2.6
2023-01-15T08:20:01.150Z,8.2
2023-01-15T08:25:01.156Z,11.6
2023-01-15T08:30:02.344Z,12.4
2023-01-15T08:35:01.281Z,12.7
2023-01-15T08:40:01.191Z,13.8
2023-01-15T08:45:01.700Z,13.4
2023-01-15T08:50:01.217Z,9.4
2023-01-15T08:55:01.171Z,9.1
2023-01-15T09:00:01.740Z,8.5
2023-01-15T09:05:01.488Z,7.6
2023-01-15T15:20:01.507Z,3.4
2023-01-15T15:25:01.236Z,4.2
2023-01-15T15:30:03.083Z,4.8
2023-01-15T15:35:01.173Z,4.0
2023-01-15T15:40:01.502Z,3.6
2023-01-15T15:45:01.783Z,2.5
2023-01-15T15:50:01.828Z,1.9
2023-01-15T15:55:01.179Z,3.1
2023-01-15T16:00:01.943Z,3.5
2023-01-15T16:05:01.193Z,3.7
2023-01-15T16:10:01.279Z,5.5
2023-01-15T16:15:03.631Z,5.7
2023-01-15T16:20:01.249Z,4.3
2023-01-15T16:25:01.228Z,3.8
2023-01-15T16:30:01.893Z,3.5
2023-01-15T16:35:01.199Z,1.8
2023-01-15T16:40:01.264Z,2.0
2023-01-15T16:45:05.496Z,1.8
2023-01-15T16:50:01.219Z,1.3
2023-01-15T16:55:01.155Z,1.0
2023-01-15T17:00:04.209Z,0.8
2023-01-15T17:05:01.327Z,0.4
2023-01-15T17:10:01.208Z,0.4
2023-01-15T17:15:16.712Z,0.6
2023-01-15T17:20:01.138Z,1.0
2023-01-15T17:25:02.245Z,1.2
2023-01-15T17:30:01.889Z,1.2
2023-01-15T17:35:01.759Z,1.2
2023-01-15T17:40:01.183Z,1.2
2023-01-15T17:45:01.714Z,1.0
2023-01-15T17:50:01.194Z,1.0
2023-01-15T17:55:01.953Z,1.0
2023-01-15T18:00:01.757Z,1.0
2023-01-15T18:05:01.170Z,1.0
2023-01-15T18:10:01.220Z,1.0
2023-01-15T18:15:01.798Z,1.1
2023-01-15T18:20:01.167Z,1.1
2023-01-15T18:30:01.834Z,1.0
2023-01-15T18:35:01.282Z,1.1
2023-01-15T18:40:01.305Z,1.0
2023-01-15T18:45:01.631Z,1.0
2023-01-15T18:50:01.303Z,1.0
2023-01-15T18:55:01.230Z,1.1
2023-01-15T19:00:01.644Z,0.8
2023-01-15T19:05:01.922Z,0.6
2023-01-15T19:10:01.545Z,0.6
2023-01-15T19:15:03.344Z,0.5
2023-01-15T19:20:01.312Z,0.6
2023-01-15T19:25:01.279Z,0.6
2023-01-15T19:30:01.741Z,0.6
2023-01-15T19:35:01.258Z,0.6
2023-01-15T19:40:01.188Z,0.7
2023-01-15T19:45:01.785Z,0.7
2023-01-15T19:50:01.279Z,0.8
2023-01-15T19:55:01.177Z,0.8
2023-01-15T20:00:03.899Z,0.8
2023-01-15T20:05:01.228Z,0.8
2023-01-15T20:10:01.294Z,0.7
2023-01-15T20:15:01.803Z,0.8
2023-01-15T20:30:04.145Z,0.6
2023-01-15T20:35:01.246Z,0.7
2023-01-15T20:40:01.184Z,0.7
2023-01-15T20:45:01.983Z,0.5
2023-01-15T20:55:01.272Z,0.6
2023-01-15T21:00:04.149Z,0.8
2023-01-15T21:05:01.273Z,0.8
2023-01-15T21:15:01.854Z,0.9
2023-01-15T21:20:01.375Z,1.0
2023-01-15T21:25:01.238Z,0.9
2023-01-15T21:30:02.054Z,0.9
2023-01-15T21:35:01.192Z,0.9
2023-01-15T21:40:01.265Z,0.9
2023-01-15T21:45:01.822Z,1.0
2023-01-15T21:50:01.206Z,1.0
2023-01-15T21:55:01.198Z,0.8
2023-01-15T22:00:01.938Z,0.8
2023-01-15T22:05:01.217Z,0.6
2023-01-15T22:10:01.209Z,0.4
2023-01-15T22:15:01.687Z,0.4
2023-01-15T22:25:01.471Z,0.3
2023-01-15T22:30:02.135Z,0.3
2023-01-15T22:40:01.391Z,0.1
2023-01-15T22:45:01.859Z,0.3
2023-01-15T22:50:01.319Z,0.3
2023-01-15T22:55:01.280Z,0.2
2023-01-15T23:00:02.253Z,0.3
2023-01-15T23:10:01.301Z,0.1
2023-01-15T23:15:01.595Z,0.1
2023-01-15T23:20:01.384Z,0.1
2023-01-15T23:25:01.821Z,0.0
2023-01-15T23:30:02.026Z,0.0
2023-01-15T23:35:01.949Z,0.2
2023-01-15T23:45:03.324Z,0.3
2023-01-15T23:50:01.225Z,0.3
2023-01-15T23:55:01.211Z,0.3
